EBTX weather

Theux (Verviers) Airfield
Verviers, Liège, Belgium

Public forecast

Using degrees Celsius for public forecast. Weather courtesy of forecast.io.

METAR (pilot weather report)

Report is more than 6 hours old.

Closest report is Spa (la Sauvenière) Airport, 4.7 nm (8.7 km) SSE. Retrieved 2010/10/28 14:00 UTC (8 years ago):

EBSP 281400Z /////KT 9999 FEW030 35/16 Q1011

TAF (pilot weather forecast)

Forecast is more than 12 hours old.

Closest forecast is Elsenborn Air Base, 13.2 nm (24.4 km) ESE. Retrieved 2012/06/26 19:39 UTC (7 years ago):

TAF EBLB 261541Z 2619/2707 24005KT 9999 SCT020 BECMG 2623/2701 SCT010 SCT020 BECMG 2703/2705 22009KT 5000 BR SCT004 SCT007 BKN015 PROB40 TEMPO 2703/2707 2000 -SHRA SCT002 BKN003 BKN010